Time;durP1;ratioP1;P1;durP2;ratioP2;P2;SDS_P1;SDS_P2;PMS_P1;PMS_P2;Temp;Humidity;BMP_temperature;BMP_pressure;BME280_temperature;BME280_humidity;BME280_pressure;Samples;Min_cycle;Max_cycle;Signal;HPM_P1;HPM_P2
2022/08/26 00:00:54;;;;;;;28.50;11.78;;;;;;;21.57;90.42;101442.84;1632402;85;21258;-85
2022/08/26 00:03:22;;;;;;;27.22;12.63;;;;;;;21.59;90.38;101439.72;1643123;85;21015;-85
2022/08/26 00:05:49;;;;;;;24.67;12.73;;;;;;;21.59;90.25;101436.58;1654573;85;22706;-85
2022/08/26 00:08:18;;;;;;;24.20;13.80;;;;;;;21.58;90.27;101428.55;1664274;85;21450;-85
2022/08/26 00:10:45;;;;;;;33.53;13.22;;;;;;;21.60;90.33;101428.09;1654963;85;21510;-85
2022/08/26 00:13:12;;;;;;;25.95;12.63;;;;;;;21.60;90.36;101423.61;1674899;85;21000;-86
2022/08/26 00:15:41;;;;;;;25.52;13.22;;;;;;;21.59;90.35;101423.19;1670142;85;21510;-86
2022/08/26 00:18:09;;;;;;;21.97;13.88;;;;;;;21.58;90.46;101422.73;1645452;85;21747;-86
2022/08/26 00:20:36;;;;;;;28.07;12.80;;;;;;;21.59;90.57;101424.53;1645299;87;21011;-85
2022/08/26 00:23:02;;;;;;;24.05;13.22;;;;;;;21.60;90.57;101425.41;1659639;85;21055;-85
2022/08/26 00:25:32;;;;;;;31.33;12.78;;;;;;;21.60;90.69;101419.59;1669256;85;21021;-85
2022/08/26 00:27:59;;;;;;;23.25;13.65;;;;;;;21.61;90.75;101419.16;1651255;85;21523;-86
2022/08/26 00:30:28;;;;;;;31.15;12.18;;;;;;;21.61;90.80;101417.36;1656911;85;21739;-85
2022/08/26 00:32:54;;;;;;;29.07;12.23;;;;;;;21.63;90.92;101413.33;1661906;85;21023;-85
2022/08/26 00:35:22;;;;;;;22.60;11.75;;;;;;;21.66;90.95;101411.94;1633732;85;21031;-85
2022/08/26 00:37:49;;;;;;;31.50;13.48;;;;;;;21.67;90.93;101412.39;1657583;85;21821;-86
2022/08/26 00:40:22;;;;;;;26.37;12.20;;;;;;;21.68;90.92;101412.38;1642910;86;21029;-85
2022/08/26 00:42:48;;;;;;;26.60;12.73;;;;;;;21.67;90.94;101414.61;1653796;86;21770;-85
2022/08/26 00:45:15;;;;;;;24.40;12.68;;;;;;;21.67;91.01;101410.59;1651355;86;21036;-85
2022/08/26 00:47:51;;;;;;;20.43;11.95;;;;;;;21.67;91.07;101411.05;1664203;84;21059;-85
2022/08/26 00:50:22;;;;;;;23.57;13.08;;;;;;;21.66;91.11;101414.19;1649913;86;21036;-85
2022/08/26 00:52:49;;;;;;;25.10;12.90;;;;;;;21.65;91.20;101417.76;1637228;86;21023;-86
2022/08/26 00:55:20;;;;;;;27.90;12.10;;;;;;;21.66;91.30;101410.59;1630098;86;22648;-86
2022/08/26 00:57:48;;;;;;;24.52;12.65;;;;;;;21.69;91.40;101411.92;1637835;85;21058;-85
2022/08/26 01:00:20;;;;;;;26.52;12.85;;;;;;;21.70;91.52;101419.95;1637134;86;20996;-86
2022/08/26 01:02:47;;;;;;;26.85;11.90;;;;;;;21.73;91.56;101413.66;1637331;86;21329;-86
2022/08/26 01:05:15;;;;;;;27.93;12.55;;;;;;;21.73;91.52;101411.89;1648247;86;21015;-86
2022/08/26 01:07:42;;;;;;;28.60;14.50;;;;;;;21.75;91.67;101417.20;1645316;85;21760;-86
2022/08/26 01:10:13;;;;;;;22.93;12.53;;;;;;;21.79;91.74;101420.74;1643211;86;21485;-86
2022/08/26 01:12:44;;;;;;;29.23;13.48;;;;;;;21.81;91.71;101416.25;1637485;86;21383;-85
2022/08/26 01:15:16;;;;;;;30.88;12.35;;;;;;;21.81;91.78;101414.91;1637409;86;21610;-86
2022/08/26 01:17:43;;;;;;;27.98;12.18;;;;;;;21.81;91.87;101418.93;1651710;85;21022;-86
2022/08/26 01:20:30;;;;;;;26.05;12.07;;;;;;;21.85;92.00;101409.52;1663421;85;21748;-86
2022/08/26 01:23:02;;;;;;;26.37;13.25;;;;;;;21.87;92.01;101407.70;1636783;86;20999;-86
2022/08/26 01:25:52;;;;;;;34.20;12.98;;;;;;;21.87;91.92;101412.19;1655951;86;21052;-86
2022/08/26 01:28:25;;;;;;;26.15;12.45;;;;;;;21.84;92.00;101410.41;1636304;87;21065;-86
2022/08/26 01:30:53;;;;;;;24.37;12.33;;;;;;;21.87;92.12;101412.19;1637717;86;21046;-86
2022/08/26 01:33:24;;;;;;;26.95;13.32;;;;;;;21.89;92.13;101409.03;1637207;84;21748;-86
2022/08/26 01:35:52;;;;;;;23.75;13.08;;;;;;;21.90;92.19;101409.02;1642804;85;21494;-86
2022/08/26 01:38:26;;;;;;;29.52;13.62;;;;;;;21.91;92.15;101404.08;1678975;84;20996;-86
2022/08/26 01:40:53;;;;;;;30.20;14.23;;;;;;;21.94;92.21;101407.16;1648905;84;21215;-85
2022/08/26 01:43:23;;;;;;;30.92;14.63;;;;;;;21.96;92.27;101403.13;1647900;84;21027;-86
2022/08/26 01:45:50;;;;;;;28.10;14.90;;;;;;;21.96;92.14;101405.81;1651464;85;21818;-86
2022/08/26 01:48:19;;;;;;;27.70;15.08;;;;;;;21.97;92.17;101400.90;1599367;89;21032;-86
2022/08/26 01:50:46;;;;;;;32.13;16.35;;;;;;;21.95;92.12;101403.59;1695807;84;21469;-86
2022/08/26 01:53:16;;;;;;;44.30;18.32;;;;;;;21.94;92.25;101405.39;1703063;83;21366;-85
2022/08/26 01:55:46;;;;;;;34.98;17.52;;;;;;;21.94;92.24;101405.39;1703078;83;21031;-86
2022/08/26 01:58:19;;;;;;;33.35;17.05;;;;;;;21.95;92.27;101404.93;1677470;84;21734;-86
2022/08/26 02:00:46;;;;;;;36.00;17.67;;;;;;;21.97;92.30;101398.22;1684661;84;20968;-86
2022/08/26 02:03:16;;;;;;;34.83;17.17;;;;;;;21.93;91.93;101396.91;1678348;84;21051;-86
2022/08/26 02:06:03;;;;;;;37.67;16.93;;;;;;;21.92;92.27;101395.58;1680641;84;21042;-86
2022/08/26 02:08:45;;;;;;;29.95;15.68;;;;;;;21.92;92.29;101399.59;1674786;84;21137;-86
2022/08/26 02:11:12;;;;;;;30.97;16.52;;;;;;;21.93;92.41;101404.06;1674543;84;21730;-85
2022/08/26 02:13:43;;;;;;;30.05;16.10;;;;;;;21.92;92.41;101400.94;1674652;84;20996;-86
2022/08/26 02:16:10;;;;;;;30.48;16.77;;;;;;;21.92;92.50;101393.80;1674629;84;21000;-86
2022/08/26 02:18:38;;;;;;;31.30;16.55;;;;;;;21.92;92.59;101391.12;1687341;84;21070;-85
2022/08/26 02:21:05;;;;;;;32.98;17.65;;;;;;;21.94;92.64;101385.29;1686392;84;21011;-86
2022/08/26 02:23:32;;;;;;;43.40;18.65;;;;;;;21.97;92.56;101389.72;1663496;84;21735;-86
2022/08/26 02:26:09;;;;;;;30.27;17.40;;;;;;;21.97;92.58;101386.16;1650435;86;21022;-85
2022/08/26 02:28:50;;;;;;;43.40;17.82;;;;;;;21.97;92.54;101394.20;1632502;86;21443;-85
2022/08/26 02:31:18;;;;;;;35.17;17.10;;;;;;;21.97;92.63;101387.03;1624098;87;21646;-86
2022/08/26 02:33:45;;;;;;;37.63;17.90;;;;;;;21.98;92.65;101387.91;1632157;86;21479;-85
2022/08/26 02:36:12;;;;;;;37.25;19.02;;;;;;;22.00;92.67;101388.34;1641187;86;21751;-85
2022/08/26 02:38:38;;;;;;;37.83;18.27;;;;;;;22.03;92.80;101386.07;1653943;85;20987;-86
2022/08/26 02:41:05;;;;;;;38.00;18.85;;;;;;;22.04;92.70;101381.16;1632452;86;21016;-85
2022/08/26 02:43:32;;;;;;;32.03;17.82;;;;;;;22.04;92.66;101381.16;1646832;86;21374;-85
2022/08/26 02:45:59;;;;;;;35.50;18.17;;;;;;;22.03;92.72;101380.71;1640655;86;21032;-86
2022/08/26 02:48:26;;;;;;;46.98;18.87;;;;;;;22.03;92.73;101380.25;1659076;86;21744;-86
2022/08/26 02:50:52;;;;;;;39.78;20.35;;;;;;;22.03;92.80;101378.91;1658714;85;21015;-86
2022/08/26 02:53:19;;;;;;;39.25;18.57;;;;;;;22.05;92.81;101381.58;1659101;86;20988;-86
2022/08/26 02:55:48;;;;;;;40.15;20.48;;;;;;;22.05;92.82;101374.41;1658536;85;21880;-85
2022/08/26 02:58:15;;;;;;;38.45;18.87;;;;;;;22.07;92.88;101369.03;1612131;86;21555;-85
2022/08/26 03:00:42;;;;;;;43.00;19.62;;;;;;;22.06;92.81;101368.63;1645686;84;22163;-85
2022/08/26 03:03:09;;;;;;;38.65;20.00;;;;;;;22.08;92.97;101367.68;1699399;82;21508;-86
2022/08/26 03:05:36;;;;;;;45.58;20.62;;;;;;;22.07;92.88;101365.92;1705511;84;21005;-86
2022/08/26 03:08:03;;;;;;;39.20;20.15;;;;;;;22.07;92.86;101362.34;1706416;83;21365;-86
2022/08/26 03:10:30;;;;;;;40.30;18.65;;;;;;;22.04;92.85;101361.93;1706730;82;21015;-85
2022/08/26 03:12:59;;;;;;;39.90;22.45;;;;;;;22.04;93.01;101364.61;1690893;83;22597;-86
2022/08/26 03:15:26;;;;;;;44.85;22.30;;;;;;;22.05;92.90;101361.47;1640355;86;21015;-85
2022/08/26 03:17:53;;;;;;;46.68;22.22;;;;;;;22.03;92.98;101361.48;1690659;83;21524;-86
2022/08/26 03:20:20;;;;;;;46.75;22.22;;;;;;;22.05;93.16;101364.15;1668391;84;21023;-86
2022/08/26 03:22:50;;;;;;;58.83;23.85;;;;;;;22.04;93.03;101357.03;1679157;84;21000;-85
2022/08/26 03:25:16;;;;;;;56.98;23.57;;;;;;;22.05;93.26;101352.97;1694892;84;21811;-85
2022/08/26 03:27:43;;;;;;;53.15;22.98;;;;;;;22.08;93.24;101356.08;1679163;84;20999;-86
2022/08/26 03:32:56;;;;;;;54.05;23.70;;;;;;;22.08;93.28;101351.59;1689709;84;20973;-86
2022/08/26 03:35:24;;;;;;;48.68;24.10;;;;;;;22.11;93.38;101348.89;1708004;84;21050;-86
2022/08/26 03:37:51;;;;;;;47.20;26.40;;;;;;;22.13;93.25;101350.21;1679495;84;21802;-86
2022/08/26 03:40:18;;;;;;;54.23;27.90;;;;;;;22.10;93.26;101351.12;1697121;84;21943;-86
2022/08/26 03:42:45;;;;;;;51.65;26.12;;;;;;;22.12;93.40;101350.64;1699592;83;21022;-86
2022/08/26 03:45:13;;;;;;;45.30;26.25;;;;;;;22.12;93.46;101349.30;1683331;84;22586;-85
2022/08/26 03:47:40;;;;;;;49.58;27.27;;;;;;;22.15;93.43;101347.05;1692693;84;21509;-85
2022/08/26 03:50:08;;;;;;;54.58;27.13;;;;;;;22.13;93.39;101352.43;1693029;84;21716;-86
2022/08/26 03:52:35;;;;;;;56.30;27.25;;;;;;;22.14;93.51;101350.62;1693008;83;20980;-85
2022/08/26 03:55:04;;;;;;;44.48;26.07;;;;;;;22.15;93.50;101344.38;1682280;84;21115;-86
2022/08/26 03:57:31;;;;;;;49.40;24.40;;;;;;;22.16;93.60;101341.23;1677570;84;21030;-85
2022/08/26 03:59:57;;;;;;;51.18;24.72;;;;;;;22.20;93.69;101339.81;1659419;84;21029;-85
2022/08/26 04:02:25;;;;;;;55.30;26.85;;;;;;;22.23;93.58;101345.14;1693456;84;21742;-85
2022/08/26 04:04:51;;;;;;;53.10;25.68;;;;;;;22.22;93.50;101349.18;1680428;84;21071;-85
2022/08/26 04:07:18;;;;;;;46.33;26.05;;;;;;;22.21;93.55;101347.42;1684222;83;21003;-85
2022/08/26 04:09:45;;;;;;;49.45;25.23;;;;;;;22.23;93.70;101346.48;1684285;84;21335;-85
2022/08/26 04:12:12;;;;;;;48.45;24.95;;;;;;;22.24;93.64;101349.61;1648901;86;21632;-85
2022/08/26 04:14:38;;;;;;;57.45;27.17;;;;;;;22.25;93.61;101350.06;1642584;86;21784;-85
2022/08/26 04:17:05;;;;;;;38.53;24.55;;;;;;;22.24;93.64;101353.63;1708049;82;21006;-85
2022/08/26 04:19:32;;;;;;;56.53;27.73;;;;;;;22.26;93.73;101345.58;1702293;83;20987;-84
2022/08/26 04:21:59;;;;;;;46.37;25.25;;;;;;;22.27;93.71;101351.39;1648777;86;21436;-84
2022/08/26 04:24:26;;;;;;;42.48;26.57;;;;;;;22.28;93.78;101350.46;1695551;84;21015;-84
2022/08/26 04:26:52;;;;;;;53.58;26.80;;;;;;;22.29;93.71;101346.89;1693779;84;21725;-87
2022/08/26 04:29:26;;;;;;;46.53;26.95;;;;;;;22.29;93.81;101346.42;1691400;84;21419;-84
2022/08/26 04:31:53;;;;;;;50.05;25.77;;;;;;;22.31;93.84;101347.28;1690006;83;21067;-84
2022/08/26 04:34:20;;;;;;;49.80;27.25;;;;;;;22.36;93.96;101346.36;1692335;83;21324;-84
2022/08/26 04:36:46;;;;;;;58.63;26.50;;;;;;;22.41;94.09;101345.38;1692189;84;21023;-86
2022/08/26 04:39:16;;;;;;;55.33;28.50;;;;;;;22.46;94.05;101347.52;1643086;86;21790;-86
2022/08/26 04:41:43;;;;;;;58.05;26.55;;;;;;;22.49;93.88;101355.53;1659695;86;21478;-86
2022/08/26 04:44:10;;;;;;;48.10;26.00;;;;;;;22.51;93.84;101352.37;1642914;86;21539;-86
2022/08/26 04:46:37;;;;;;;49.93;28.65;;;;;;;22.54;93.74;101355.45;1660030;86;21322;-86
2022/08/26 04:49:07;;;;;;;44.08;24.52;;;;;;;22.55;93.67;101354.55;1659561;86;21534;-86
2022/08/26 04:51:35;;;;;;;43.63;25.72;;;;;;;22.60;93.83;101351.79;1642125;86;22413;-85
2022/08/26 04:54:02;;;;;;;51.13;25.17;;;;;;;22.66;93.76;101361.11;1649007;86;21026;-87
2022/08/26 04:56:31;;;;;;;40.73;22.77;;;;;;;22.71;93.91;101361.47;1655277;84;21442;-85
2022/08/26 04:58:58;;;;;;;50.43;25.57;;;;;;;22.80;93.69;101359.53;1648626;86;20988;-84
2022/08/26 05:01:25;;;;;;;41.80;21.52;;;;;;;22.84;93.37;101368.87;1659345;86;21030;-84
2022/08/26 05:03:59;;;;;;;46.45;23.67;;;;;;;22.79;93.00;101359.13;1650783;86;21796;-85
2022/08/26 05:06:25;;;;;;;36.65;22.45;;;;;;;22.78;93.09;101368.95;1657352;85;21015;-86
2022/08/26 05:08:53;;;;;;;42.23;24.05;;;;;;;22.74;92.91;101364.55;1656763;85;21068;-87
2022/08/26 05:11:20;;;;;;;42.50;21.97;;;;;;;22.73;93.09;101364.13;1630983;86;20996;-86
2022/08/26 05:13:47;;;;;;;39.35;21.15;;;;;;;22.83;93.34;101369.77;1623077;86;21019;-86
2022/08/26 05:16:14;;;;;;;36.63;18.85;;;;;;;22.90;93.39;101361.17;1632971;87;21737;-87
2022/08/26 05:18:42;;;;;;;28.32;19.10;;;;;;;22.96;93.22;101359.73;1657224;86;21512;-87
2022/08/26 05:21:20;;;;;;;44.73;23.42;;;;;;;23.02;93.19;101356.93;1648359;86;20963;-87
2022/08/26 05:24:47;;;;;;;;;;;;;;;;;;;;;
2022/08/26 05:27:14;;;;;;;43.08;22.25;;;;;;;23.16;92.89;101358.52;1659435;85;20972;-86
2022/08/26 05:29:41;;;;;;;40.90;19.73;;;;;;;23.25;92.68;101359.70;1695641;82;21797;-87
2022/08/26 05:32:08;;;;;;;33.08;19.90;;;;;;;23.33;92.68;101361.81;1706847;83;20948;-87
2022/08/26 05:34:43;;;;;;;42.98;19.98;;;;;;;23.39;92.41;101361.69;1721212;82;20967;-88
2022/08/26 05:37:10;;;;;;;40.63;17.55;;;;;;;23.41;92.24;101355.83;1715376;82;20995;-87
2022/08/26 05:39:38;;;;;;;40.55;17.45;;;;;;;23.44;91.66;101362.50;1705243;82;20991;-87
2022/08/26 05:42:07;;;;;;;39.10;19.20;;;;;;;23.41;91.69;101358.98;1694161;83;21737;-86
2022/08/26 05:44:34;;;;;;;35.20;16.30;;;;;;;23.48;91.81;101364.64;1692656;84;20995;-85
2022/08/26 05:47:00;;;;;;;41.10;19.70;;;;;;;23.53;91.62;101365.45;1708954;84;21062;-85
2022/08/26 05:49:27;;;;;;;36.17;15.75;;;;;;;23.60;91.63;101366.23;1693171;84;21038;-85
2022/08/26 05:51:57;;;;;;;34.95;18.10;;;;;;;23.65;91.30;101369.72;1703140;84;21015;-85
2022/08/26 05:54:24;;;;;;;31.48;15.95;;;;;;;23.71;91.29;101366.91;1692435;83;21751;-85
2022/08/26 05:56:51;;;;;;;32.17;14.93;;;;;;;23.81;91.29;101371.67;1701501;82;21079;-86
2022/08/26 05:59:20;;;;;;;25.10;13.95;;;;;;;23.91;91.16;101367.86;1698235;84;20998;-87
2022/08/26 06:01:50;;;;;;;36.98;13.53;;;;;;;24.01;91.02;101367.23;1697303;83;20949;-85
2022/08/26 06:04:20;;;;;;;28.50;14.78;;;;;;;24.13;91.00;101370.11;1698023;83;21477;-85
2022/08/26 06:06:48;;;;;;;31.68;15.03;;;;;;;24.28;90.78;101375.63;1687046;83;21737;-86
2022/08/26 06:09:14;;;;;;;32.38;15.08;;;;;;;24.40;90.31;101376.68;1685992;84;21031;-85
2022/08/26 06:11:41;;;;;;;29.07;13.40;;;;;;;24.51;90.14;101370.59;1688439;83;21027;-86
2022/08/26 06:14:08;;;;;;;25.90;12.80;;;;;;;24.62;89.89;101369.91;1694324;82;21046;-86
2022/08/26 06:16:38;;;;;;;25.65;13.85;;;;;;;24.77;89.75;101374.05;1695707;82;21465;-86
2022/08/26 06:19:05;;;;;;;28.80;13.50;;;;;;;25.02;89.99;101376.16;1706259;83;21758;-86
2022/08/26 06:21:34;;;;;;;34.73;13.50;;;;;;;25.38;89.93;101374.34;1720990;82;21006;-85
2022/08/26 06:26:51;;;;;;;27.35;10.18;;;;;;;25.96;87.96;101373.21;1713047;82;21375;-85
2022/08/26 06:29:19;;;;;;;27.85;10.15;;;;;;;25.98;86.74;101374.52;1711030;82;21020;-85
2022/08/26 06:31:45;;;;;;;25.88;10.03;;;;;;;25.98;86.31;101374.52;1718278;82;21796;-85
2022/08/26 06:34:12;;;;;;;31.23;11.57;;;;;;;26.03;85.96;101373.02;1713103;83;21067;-85
2022/08/26 06:36:41;;;;;;;26.85;10.68;;;;;;;26.04;85.73;101370.28;1711387;83;21391;-85
2022/08/26 06:39:09;;;;;;;22.60;9.58;;;;;;;26.07;85.46;101369.30;1699929;83;21477;-86
2022/08/26 06:41:37;;;;;;;28.45;9.85;;;;;;;26.11;85.37;101366.92;1709680;83;20983;-86
2022/08/26 06:44:05;;;;;;;21.75;9.68;;;;;;;26.15;85.14;101370.84;1713760;82;22486;-86
2022/08/26 06:46:34;;;;;;;21.93;9.35;;;;;;;26.22;84.92;101365.26;1712213;83;20992;-86
2022/08/26 06:49:01;;;;;;;27.27;10.10;;;;;;;26.30;84.73;101369.97;1711169;83;21030;-86
2022/08/26 06:51:31;;;;;;;38.55;10.40;;;;;;;26.36;84.26;101369.30;1704072;83;21018;-85
2022/08/26 06:54:00;;;;;;;20.27;9.38;;;;;;;26.41;83.73;101368.27;1703974;82;20979;-85
2022/08/26 06:56:35;;;;;;;29.87;8.85;;;;;;;26.30;83.20;101374.02;1679814;83;21976;-85
2022/08/26 06:59:02;;;;;;;33.90;9.00;;;;;;;26.23;83.04;101372.44;1716240;82;21015;-85
2022/08/26 07:01:33;;;;;;;26.25;9.30;;;;;;;26.17;83.18;101368.11;1710124;83;21491;-86
2022/08/26 07:04:02;;;;;;;22.85;9.48;;;;;;;26.19;83.12;101373.87;1710740;83;20990;-86
2022/08/26 07:06:29;;;;;;;26.23;9.38;;;;;;;26.27;83.31;101369.58;1714526;82;21000;-86
2022/08/26 07:09:03;;;;;;;25.60;8.90;;;;;;;26.43;83.46;101365.95;1716205;83;21843;-86
2022/08/26 07:11:31;;;;;;;22.95;9.50;;;;;;;26.76;83.49;101363.13;1702507;82;21427;-86
2022/08/26 07:13:58;;;;;;;27.50;9.38;;;;;;;27.13;83.01;101353.80;1701039;82;20975;-86
2022/08/26 07:16:26;;;;;;;20.62;8.50;;;;;;;27.45;82.25;101352.69;1715425;82;20975;-87
2022/08/26 07:18:53;;;;;;;25.97;8.48;;;;;;;27.60;81.53;101353.95;1702931;83;20995;-87
2022/08/26 07:21:25;;;;;;;25.12;8.78;;;;;;;27.83;81.30;101351.73;1712348;83;21769;-86
2022/08/26 07:23:53;;;;;;;29.05;10.98;;;;;;;27.85;79.77;101347.15;1703177;83;20991;-86
2022/08/26 07:26:23;;;;;;;25.45;8.90;;;;;;;27.80;79.48;101349.61;1711144;83;20964;-86
2022/08/26 07:28:51;;;;;;;33.60;11.60;;;;;;;27.75;79.04;101344.39;1709107;82;21453;-86
2022/08/26 07:31:20;;;;;;;25.77;10.35;;;;;;;27.75;78.94;101348.93;1715639;83;21085;-85
2022/08/26 07:33:47;;;;;;;29.15;12.55;;;;;;;27.71;78.59;101334.63;1704018;83;22580;-86
2022/08/26 07:36:14;;;;;;;31.02;10.50;;;;;;;27.70;78.60;101336.91;1711132;83;20990;-86
2022/08/26 07:38:43;;;;;;;30.23;9.83;;;;;;;27.90;79.10;101345.67;1708277;83;20995;-88
2022/08/26 07:41:12;;;;;;;27.35;9.83;;;;;;;28.09;78.57;101344.49;1707914;82;21222;-86
2022/08/26 07:43:39;;;;;;;33.58;9.78;;;;;;;28.23;78.10;101345.30;1715235;83;21050;-86
2022/08/26 07:46:06;;;;;;;27.07;9.33;;;;;;;28.39;77.61;101350.52;1710179;83;22009;-86
2022/08/26 07:48:33;;;;;;;28.95;9.18;;;;;;;28.40;77.19;101346.88;1701815;82;21054;-86
2022/08/26 07:50:59;;;;;;;26.52;9.43;;;;;;;28.50;77.02;101352.32;1709190;82;20967;-84
2022/08/26 07:53:26;;;;;;;23.87;9.38;;;;;;;28.58;76.76;101351.17;1685920;83;21031;-86
2022/08/26 07:55:53;;;;;;;28.07;9.58;;;;;;;28.70;76.70;101360.16;1714709;83;21038;-87
2022/08/26 07:58:20;;;;;;;23.05;8.15;;;;;;;28.89;76.48;101367.92;1707832;82;21687;-87
2022/08/26 08:00:47;;;;;;;24.92;9.68;;;;;;;29.10;76.21;101363.02;1709852;83;21038;-87
2022/08/26 08:03:14;;;;;;;27.02;8.28;;;;;;;29.28;75.66;101363.58;1716429;82;21496;-87
2022/08/26 08:05:41;;;;;;;29.98;8.53;;;;;;;29.45;75.35;101364.20;1666005;83;21398;-87
2022/08/26 08:08:08;;;;;;;26.27;9.50;;;;;;;29.67;74.98;101357.34;1691310;83;21019;-87
2022/08/26 08:10:35;;;;;;;28.50;8.25;;;;;;;29.82;74.26;101360.73;1690101;83;22534;-87
2022/08/26 08:13:03;;;;;;;22.17;8.18;;;;;;;29.91;73.87;101357.22;1678613;84;21879;-88
2022/08/26 08:15:31;;;;;;;37.95;9.30;;;;;;;29.95;73.33;101358.83;1698510;83;20997;-86
2022/08/26 08:17:59;;;;;;;17.12;7.37;;;;;;;29.94;73.13;101353.88;1672996;83;44021;-86
2022/08/26 08:20:27;;;;;;;22.87;8.80;;;;;;;29.93;72.59;101353.95;1696700;84;21548;-86
2022/08/26 08:22:54;;;;;;;25.35;8.38;;;;;;;29.88;72.23;101357.34;1698553;83;21985;-86
2022/08/26 08:25:21;;;;;;;23.70;7.22;;;;;;;29.89;72.17;101353.20;1699936;83;21008;-86
2022/08/26 08:27:48;;;;;;;27.73;8.58;;;;;;;29.92;72.14;101350.81;1690670;83;21015;-86
2022/08/26 08:30:16;;;;;;;27.77;8.53;;;;;;;30.00;71.76;101352.72;1695187;84;21591;-86
2022/08/26 08:32:44;;;;;;;22.90;7.60;;;;;;;30.00;71.72;101352.72;1692067;83;21070;-86
2022/08/26 08:35:14;;;;;;;27.45;8.10;;;;;;;30.05;71.47;101353.36;1698075;84;21186;-86
2022/08/26 08:37:42;;;;;;;19.92;7.85;;;;;;;30.09;71.15;101345.50;1696524;83;21039;-86
2022/08/26 08:40:10;;;;;;;27.05;7.87;;;;;;;30.13;71.07;101349.82;1693699;83;21015;-86
2022/08/26 08:43:02;;;;;;;22.67;8.00;;;;;;;30.15;70.68;101345.69;1695662;83;20992;-87
2022/08/26 08:45:53;;;;;;;24.15;7.97;;;;;;;30.13;70.27;101341.67;1693645;83;21336;-86
2022/08/26 08:48:30;;;;;;;21.90;7.75;;;;;;;30.16;70.26;101336.56;1681343;84;21780;-86
2022/08/26 08:51:12;;;;;;;19.87;7.90;;;;;;;30.19;69.97;101333.72;1687021;84;21028;-86
2022/08/26 08:53:42;;;;;;;25.65;8.05;;;;;;;30.18;69.30;101336.91;1683770;84;21863;-86
2022/08/26 08:56:32;;;;;;;22.20;7.28;;;;;;;30.03;69.35;101342.59;1694285;84;21019;-86
2022/08/26 08:59:06;;;;;;;24.85;8.35;;;;;;;30.08;69.39;101339.65;1690030;84;21023;-86
2022/08/26 09:02:12;;;;;;;24.37;7.97;;;;;;;30.08;69.13;101332.86;1678847;84;22421;-86
2022/08/26 09:05:09;;;;;;;19.77;7.17;;;;;;;30.11;68.94;101341.33;1698440;84;21028;-86
2022/08/26 09:08:28;;;;;;;;;;;;;;;;;;;;;
2022/08/26 09:10:37;;;;;;;19.70;7.78;;;;;;;29.99;68.31;101342.80;1629076;83;21035;-87
2022/08/26 09:13:10;;;;;;;25.50;7.53;;;;;;;29.91;68.19;101343.16;1677388;85;21884;-87
2022/08/26 09:16:07;;;;;;;19.07;7.45;;;;;;;29.92;68.30;101339.51;1688548;84;21771;-88
2022/08/26 09:19:03;;;;;;;24.82;7.60;;;;;;;29.95;68.19;101336.62;1694285;84;21011;-87
2022/08/26 09:21:31;;;;;;;25.60;8.45;;;;;;;29.83;67.68;101335.37;1683550;84;21502;-85
2022/08/26 09:23:58;;;;;;;18.90;8.43;;;;;;;29.79;67.50;101325.63;1671748;84;21001;-85
2022/08/26 09:26:44;;;;;;;21.25;7.50;;;;;;;29.76;67.28;101325.75;1674843;84;21509;-85
2022/08/26 09:29:30;;;;;;;19.30;7.03;;;;;;;29.71;67.27;101327.76;1695501;84;22585;-85
2022/08/26 09:32:23;;;;;;;25.45;6.72;;;;;;;29.70;67.05;101319.23;1678348;84;21043;-85
2022/08/26 09:35:07;;;;;;;20.30;7.17;;;;;;;29.67;66.61;101323.43;1644648;86;21050;-86
2022/08/26 09:37:41;;;;;;;18.82;6.05;;;;;;;29.54;66.52;101323.10;1694960;84;21249;-86
2022/08/26 09:40:28;;;;;;;20.50;6.53;;;;;;;29.50;66.23;101316.55;1700028;84;21106;-87
2022/08/26 09:43:19;;;;;;;15.78;6.60;;;;;;;29.42;65.73;101319.61;1680159;84;22595;-87
2022/08/26 09:46:08;;;;;;;18.82;7.05;;;;;;;29.44;65.96;101314.51;1698508;83;20979;-87
2022/08/26 09:48:32;;;;;;;27.30;7.10;;;;;;;29.53;65.59;101306.92;1683019;84;20999;-86
2022/08/26 09:51:02;;;;;;;14.18;6.33;;;;;;;29.56;65.51;101308.12;1699677;84;21521;-87
2022/08/26 09:53:36;;;;;;;17.25;5.45;;;;;;;29.60;64.93;101306.57;1668095;84;21496;-87
2022/08/26 09:56:15;;;;;;;;;;;;;;;29.64;64.29;101300.05;1682763;84;21899;-87
2022/08/26 09:58:46;;;;;;;16.30;4.83;;;;;;;29.76;63.56;101301.81;1674782;84;20736;-86
2022/08/26 10:01:43;;;;;;;16.30;5.53;;;;;;;29.87;62.83;101300.84;1678421;84;21011;-86
2022/08/26 10:04:24;;;;;;;18.70;5.58;;;;;;;29.98;61.88;101298.98;1702916;84;20995;-86
2022/08/26 10:07:08;;;;;;;11.85;4.92;;;;;;;30.16;61.62;101291.28;1684583;84;21008;-86
2022/08/26 10:09:39;;;;;;;19.35;5.28;;;;;;;30.36;60.76;101295.78;1682536;84;21683;-86
2022/08/26 10:12:16;;;;;;;16.02;5.42;;;;;;;30.50;60.16;101291.49;1653672;85;21008;-86
2022/08/26 10:14:51;;;;;;;17.80;5.55;;;;;;;30.62;59.66;101293.61;1631603;86;21031;-86
2022/08/26 10:18:04;;;;;;;17.92;5.08;;;;;;;30.70;58.76;101290.01;1662054;86;21033;-87
2022/08/26 10:20:35;;;;;;;15.03;5.80;;;;;;;30.72;58.37;101292.16;1623930;86;21032;-87
2022/08/26 10:23:17;;;;;;;16.85;5.67;;;;;;;30.81;57.47;101290.34;1632148;86;21740;-87
2022/08/26 10:26:14;;;;;;;14.80;5.08;;;;;;;30.79;57.32;101289.55;1650820;86;21031;-87
2022/08/26 10:29:06;;;;;;;15.93;5.20;;;;;;;30.85;56.77;101283.40;1631788;85;21023;-87
2022/08/26 10:31:47;;;;;;;10.30;5.22;;;;;;;30.94;56.67;101285.67;1632204;86;21044;-87
2022/08/26 10:34:14;;;;;;;14.30;8.10;;;;;;;31.06;55.77;101277.35;1664160;86;21028;-87
2022/08/26 10:36:48;;;;;;;14.35;4.83;;;;;;;31.12;54.90;101276.56;1610047;88;23653;-87
2022/08/26 10:39:40;;;;;;;11.28;6.72;;;;;;;31.19;54.16;101278.45;1637567;86;20996;-87
2022/08/26 10:42:24;;;;;;;16.97;5.65;;;;;;;31.25;53.84;101278.61;1659610;85;21453;-87
2022/08/26 10:44:55;;;;;;;13.50;4.90;;;;;;;31.24;53.14;101276.87;1622349;86;21114;-87
2022/08/26 10:47:28;;;;;;;10.58;4.62;;;;;;;31.20;52.57;101270.22;1667615;84;21238;-88
2022/08/26 10:49:55;;;;;;;18.55;5.35;;;;;;;31.14;52.08;101273.73;1707638;83;21719;-87
2022/08/26 10:52:42;;;;;;;10.63;5.20;;;;;;;31.10;51.77;101273.05;1706235;83;21069;-87
2022/08/26 10:55:29;;;;;;;9.93;4.30;;;;;;;31.10;51.53;101268.06;1662897;83;21045;-87
2022/08/26 10:58:23;;;;;;;10.08;4.25;;;;;;;31.05;50.87;101266.09;1661849;85;21709;-86
2022/08/26 11:04:00;;;;;;;10.18;4.05;;;;;;;30.90;50.22;101265.92;1662191;86;21683;-86
2022/08/26 11:06:31;;;;;;;13.95;3.80;;;;;;;30.93;50.29;101263.52;1666650;84;21502;-87
2022/08/26 11:09:03;;;;;;;13.38;4.50;;;;;;;30.99;50.02;101270.02;1675272;84;20999;-87
2022/08/26 11:11:44;;;;;;;14.13;4.83;;;;;;;30.99;50.03;101264.58;1663784;84;21508;-86
2022/08/26 11:14:25;;;;;;;11.20;4.22;;;;;;;31.02;49.95;101263.03;1640978;86;21656;-86
2022/08/26 11:16:56;;;;;;;9.83;5.05;;;;;;;31.02;50.09;101263.03;1602997;89;21823;-85
2022/08/26 11:19:56;;;;;;;8.00;4.03;;;;;;;31.08;50.07;101261.34;1640150;86;21042;-85
2022/08/26 11:22:34;;;;;;;11.93;3.90;;;;;;;31.03;49.77;101259.38;1629683;86;21560;-85
2022/08/26 11:25:19;;;;;;;9.38;3.70;;;;;;;31.02;49.41;101258.95;1633248;87;21054;-85
2022/08/26 11:27:45;;;;;;;7.33;4.22;;;;;;;31.05;49.54;101258.80;1611599;86;21519;-86
2022/08/26 11:30:33;;;;;;;;;;;;;;;;;;;;;
2022/08/26 11:32:56;;;;;;;15.25;4.12;;;;;;;31.15;49.57;101253.75;1614757;84;21118;-85
2022/08/26 11:35:37;;;;;;;15.20;4.28;;;;;;;31.18;49.26;101248.16;1695870;83;21477;-85
2022/08/26 11:38:26;;;;;;;10.32;4.08;;;;;;;31.17;48.75;101251.34;1728656;83;20979;-85
2022/08/26 11:41:10;;;;;;;9.63;3.85;;;;;;;31.12;48.51;101246.65;1645193;84;21027;-86
2022/08/26 11:43:38;;;;;;;;;;;;;;;31.10;48.58;101253.11;1736465;82;21776;-86
2022/08/26 11:46:07;;;;;;;12.53;4.03;;;;;;;31.05;48.07;101244.34;1730439;82;20532;-89